Time;durP1;ratioP1;P1;durP2;ratioP2;P2;SDS_P1;SDS_P2;PMS_P1;PMS_P2;Temp;Humidity;BMP_temperature;BMP_pressure;BME280_temperature;BME280_humidity;BME280_pressure;Samples;Min_cycle;Max_cycle;Signal;HPM_P1;HPM_P2
2022/06/28 00:01:51;;;;;;;4.53;3.30;;;20.10;96.80;;;;;;4984731;28;20038;-71
2022/06/28 00:04:18;;;;;;;4.47;2.90;;;20.00;96.60;;;;;;4999357;28;20029;-71
2022/06/28 00:06:44;;;;;;;4.57;3.08;;;20.00;96.70;;;;;;4999700;28;20097;-71
2022/06/28 00:09:11;;;;;;;5.87;3.40;;;20.00;96.80;;;;;;4984502;28;20041;-71
2022/06/28 00:11:38;;;;;;;3.15;2.72;;;20.00;96.50;;;;;;4999442;28;20364;-71
2022/06/28 00:16:04;;;;;;;;;;;20.00;96.80;;;;;;5002055;28;20603;-71
2022/06/28 00:16:50;;;;;;;3.63;3.17;;;19.90;96.50;;;;;;5003876;28;19936;-71
2022/06/28 00:19:15;;;;;;;3.47;3.07;;;19.90;96.90;;;;;;5002758;28;20436;-71
2022/06/28 00:21:41;;;;;;;5.07;3.17;;;19.80;96.80;;;;;;5003762;28;20269;-70
2022/06/28 00:24:07;;;;;;;6.17;3.20;;;19.80;97.00;;;;;;5003118;28;20155;-70
2022/06/28 00:26:33;;;;;;;5.07;3.30;;;19.80;97.00;;;;;;5001103;28;20030;-70
2022/06/28 00:28:58;;;;;;;4.93;3.37;;;19.70;97.00;;;;;;5003620;28;20423;-70
2022/06/28 00:31:25;;;;;;;4.00;3.27;;;19.80;97.50;;;;;;5003664;28;20030;-70
2022/06/28 00:33:51;;;;;;;4.65;3.03;;;19.70;97.30;;;;;;5003523;28;20216;-71
2022/06/28 00:36:17;;;;;;;6.53;3.28;;;19.70;97.60;;;;;;4985824;28;20046;-71
2022/06/28 00:38:43;;;;;;;4.70;3.10;;;19.70;97.30;;;;;;5003557;28;20037;-71
2022/06/28 00:41:08;;;;;;;3.27;2.70;;;19.70;97.40;;;;;;4986303;28;20256;-71
2022/06/28 00:43:35;;;;;;;3.60;2.57;;;19.70;97.40;;;;;;4985871;28;20026;-71
2022/06/28 00:46:00;;;;;;;3.60;2.60;;;19.70;97.70;;;;;;5002097;28;20045;-71
2022/06/28 00:48:26;;;;;;;3.50;3.20;;;19.70;97.70;;;;;;4985190;28;20031;-71
2022/06/28 00:50:52;;;;;;;2.97;2.60;;;19.70;97.70;;;;;;5002272;28;20097;-71
2022/06/28 00:53:18;;;;;;;4.40;3.05;;;19.60;97.60;;;;;;4985703;28;20026;-71
2022/06/28 00:55:45;;;;;;;4.30;2.80;;;19.60;97.50;;;;;;5003334;28;20046;-71
2022/06/28 00:58:11;;;;;;;4.78;2.67;;;19.60;97.50;;;;;;4970069;28;20081;-71
2022/06/28 01:00:43;;;;;;;3.92;2.30;;;19.60;97.80;;;;;;5003368;28;20041;-71
2022/06/28 01:03:10;;;;;;;3.17;2.85;;;19.50;97.90;;;;;;5002667;28;20030;-71
2022/06/28 01:05:36;;;;;;;4.15;2.90;;;19.50;97.90;;;;;;4986020;28;20351;-71
2022/06/28 01:08:04;;;;;;;5.97;3.13;;;19.50;98.20;;;;;;5001731;28;20031;-71
2022/06/28 01:10:30;;;;;;;4.57;3.15;;;19.50;98.20;;;;;;4985044;28;20313;-71
2022/06/28 01:12:56;;;;;;;3.30;2.93;;;19.50;98.20;;;;;;5002635;28;20056;-71
2022/06/28 01:15:22;;;;;;;5.30;3.30;;;19.40;98.20;;;;;;5001199;28;20076;-70
2022/06/28 01:17:47;;;;;;;5.90;3.37;;;19.50;98.30;;;;;;5001645;28;20041;-70
2022/06/28 01:20:13;;;;;;;3.20;2.90;;;19.40;98.30;;;;;;5001563;28;20081;-70
2022/06/28 01:22:40;;;;;;;4.27;2.97;;;19.40;98.20;;;;;;4985238;28;20022;-71
2022/06/28 01:25:08;;;;;;;3.55;3.00;;;19.40;98.40;;;;;;4965151;28;20038;-71
2022/06/28 01:27:34;;;;;;;3.63;3.17;;;19.40;98.50;;;;;;4998046;28;20082;-71
2022/06/28 01:30:04;;;;;;;5.05;3.38;;;19.40;98.50;;;;;;4983289;28;20057;-71
2022/06/28 01:32:30;;;;;;;4.63;2.92;;;19.40;98.40;;;;;;4997555;28;20337;-70
2022/06/28 01:34:56;;;;;;;3.40;2.77;;;19.40;98.30;;;;;;4982888;28;20054;-70
2022/06/28 01:37:22;;;;;;;3.93;3.47;;;19.40;98.30;;;;;;5009266;23;20714;-73
2022/06/28 01:39:48;;;;;;;3.70;3.13;;;19.40;98.50;;;;;;4985432;28;20014;-73
2022/06/28 01:42:13;;;;;;;3.27;2.97;;;19.40;98.40;;;;;;4995021;28;20269;-74
2022/06/28 01:44:39;;;;;;;3.40;3.00;;;19.30;98.20;;;;;;4999885;28;20264;-74
2022/06/28 01:47:06;;;;;;;6.63;3.53;;;19.30;98.30;;;;;;5002499;28;20355;-73
2022/06/28 01:49:32;;;;;;;5.70;3.42;;;19.30;98.50;;;;;;4993484;28;20035;-73
2022/06/28 01:51:58;;;;;;;3.80;3.20;;;19.30;98.60;;;;;;4977633;28;20340;-74
2022/06/28 01:54:23;;;;;;;4.27;3.27;;;19.30;98.80;;;;;;4962367;29;20019;-73
2022/06/28 01:56:49;;;;;;;4.63;3.60;;;19.30;98.90;;;;;;4962582;29;20023;-73
2022/06/28 01:59:15;;;;;;;3.97;2.77;;;19.30;99.00;;;;;;4991590;28;20019;-73
2022/06/28 02:01:41;;;;;;;4.30;3.10;;;19.40;98.90;;;;;;4990359;28;20026;-74
2022/06/28 02:04:20;;;;;;;4.93;3.20;;;19.40;98.80;;;;;;4993610;28;20034;-73
2022/06/28 02:06:46;;;;;;;4.20;3.78;;;19.40;99.00;;;;;;4962451;29;20033;-73
2022/06/28 02:09:12;;;;;;;4.30;3.13;;;19.30;98.80;;;;;;4988236;28;20030;-74
2022/06/28 02:11:38;;;;;;;3.87;3.43;;;19.30;98.80;;;;;;4997958;28;20073;-73
2022/06/28 02:14:03;;;;;;;5.47;3.70;;;19.30;98.80;;;;;;4990315;28;20023;-73
2022/06/28 02:16:29;;;;;;;4.27;3.27;;;19.30;98.90;;;;;;5000703;28;20034;-74
2022/06/28 02:18:55;;;;;;;6.57;3.73;;;19.20;99.10;;;;;;5000051;28;20025;-73
2022/06/28 02:21:21;;;;;;;3.33;2.93;;;19.20;99.00;;;;;;5002340;28;20022;-74
2022/06/28 02:23:46;;;;;;;3.20;2.90;;;19.20;99.20;;;;;;4983666;28;20029;-75
2022/06/28 02:26:13;;;;;;;4.83;3.43;;;19.20;99.40;;;;;;5002344;28;20041;-73
2022/06/28 02:28:40;;;;;;;;;;;19.20;99.50;;;;;;5002013;28;20026;-74
2022/06/28 02:31:13;;;;;;;3.75;3.22;;;19.20;99.50;;;;;;4981517;28;19913;-74
2022/06/28 02:33:39;;;;;;;3.72;3.08;;;19.20;99.40;;;;;;4980964;28;20317;-74
2022/06/28 02:41:33;;;;;;;4.72;3.50;;;19.10;99.50;;;;;;4985831;28;20397;-73
2022/06/28 02:43:59;;;;;;;4.33;3.93;;;19.10;99.70;;;;;;4977104;28;20046;-74
2022/06/28 02:46:25;;;;;;;6.33;3.40;;;19.10;99.80;;;;;;5000790;28;20030;-74
2022/06/28 02:48:51;;;;;;;5.97;4.50;;;19.10;99.70;;;;;;5002520;28;20028;-73
2022/06/28 02:51:16;;;;;;;8.13;4.60;;;19.10;99.60;;;;;;5004775;28;20037;-74
2022/06/28 02:53:42;;;;;;;7.27;3.63;;;19.00;99.50;;;;;;5006268;28;20030;-73
2022/06/28 02:56:08;;;;;;;4.77;3.90;;;19.00;99.70;;;;;;5005391;28;20037;-73
2022/06/28 02:58:33;;;;;;;5.47;4.23;;;19.00;99.90;;;;;;5005064;28;20026;-74
2022/06/28 03:00:59;;;;;;;4.73;4.17;;;19.00;99.80;;;;;;5006397;28;20046;-74
2022/06/28 03:03:25;;;;;;;5.00;3.90;;;19.00;99.90;;;;;;5004859;28;20264;-74
2022/06/28 03:05:51;;;;;;;6.27;4.17;;;18.90;99.90;;;;;;4988888;28;20355;-73
2022/06/28 03:08:17;;;;;;;5.10;3.63;;;18.90;99.90;;;;;;5003039;28;20268;-74
2022/06/28 03:10:42;;;;;;;5.53;3.87;;;18.80;99.90;;;;;;5005206;28;20260;-73
2022/06/28 03:13:08;;;;;;;6.00;4.00;;;18.70;99.90;;;;;;5003716;28;20030;-73
2022/06/28 03:15:34;;;;;;;7.60;4.27;;;18.70;99.90;;;;;;5004726;28;20046;-73
2022/06/28 03:18:00;;;;;;;6.07;4.50;;;18.70;99.90;;;;;;5005150;28;20217;-74
2022/06/28 03:20:26;;;;;;;6.43;3.70;;;18.60;99.90;;;;;;5005788;28;20026;-74
2022/06/28 03:22:52;;;;;;;6.75;4.53;;;18.60;99.90;;;;;;5005862;28;20344;-74
2022/06/28 03:25:18;;;;;;;6.87;4.60;;;18.60;99.90;;;;;;5004580;28;20026;-73
2022/06/28 03:27:43;;;;;;;8.20;4.77;;;18.50;99.90;;;;;;5004897;28;20049;-73
2022/06/28 03:30:09;;;;;;;5.23;4.23;;;18.50;99.90;;;;;;5005878;28;20061;-73
2022/06/28 03:32:35;;;;;;;5.55;4.18;;;18.50;99.90;;;;;;5005679;28;20341;-74
2022/06/28 03:35:01;;;;;;;5.97;4.83;;;18.50;99.90;;;;;;5004352;28;20033;-73
2022/06/28 03:37:26;;;;;;;7.17;4.23;;;18.50;99.90;;;;;;5005560;28;20034;-73
2022/06/28 03:39:52;;;;;;;7.87;4.63;;;18.50;99.90;;;;;;5004673;28;20034;-74
2022/06/28 03:42:18;;;;;;;5.57;4.33;;;18.50;99.90;;;;;;5005640;28;20048;-74
2022/06/28 03:44:44;;;;;;;6.57;5.37;;;18.50;99.90;;;;;;5005443;28;20053;-73
2022/06/28 03:47:09;;;;;;;7.77;4.90;;;18.50;99.90;;;;;;5004151;28;20076;-73
2022/06/28 03:49:35;;;;;;;6.37;5.40;;;18.50;99.90;;;;;;5005717;28;20033;-74
2022/06/28 03:52:01;;;;;;;5.57;4.70;;;18.60;99.90;;;;;;5004030;28;20030;-73
2022/06/28 03:54:27;;;;;;;8.50;5.50;;;18.60;99.90;;;;;;5005339;28;20041;-74
2022/06/28 03:56:52;;;;;;;11.83;5.73;;;18.50;99.90;;;;;;5004047;28;20026;-74
2022/06/28 03:59:18;;;;;;;6.63;5.07;;;18.50;99.90;;;;;;5005363;28;20049;-74
2022/06/28 04:01:44;;;;;;;5.27;4.77;;;18.50;99.90;;;;;;5003652;28;20097;-74
2022/06/28 04:04:10;;;;;;;6.30;4.77;;;18.50;99.90;;;;;;4990421;28;20325;-73
2022/06/28 04:06:35;;;;;;;8.90;5.30;;;18.50;99.90;;;;;;4987532;28;20065;-73
2022/06/28 04:09:01;;;;;;;6.20;4.50;;;18.40;99.90;;;;;;5004877;28;20034;-74
2022/06/28 04:11:27;;;;;;;5.60;4.73;;;18.40;99.90;;;;;;4979517;28;20334;-73
2022/06/28 04:13:53;;;;;;;9.00;5.17;;;18.40;99.90;;;;;;4988162;28;20225;-74
2022/06/28 04:16:21;;;;;;;7.25;5.28;;;18.30;99.90;;;;;;5001768;28;20222;-74
2022/06/28 04:18:47;;;;;;;5.93;5.32;;;18.30;99.90;;;;;;4957296;28;20097;-72
2022/06/28 04:21:14;;;;;;;7.35;5.47;;;18.30;99.90;;;;;;4975909;28;20057;-73
2022/06/28 04:23:40;;;;;;;7.25;5.32;;;18.20;99.90;;;;;;4975660;28;20049;-72
2022/06/28 04:26:06;;;;;;;8.27;5.77;;;18.10;99.90;;;;;;4978706;28;20016;-73
2022/06/28 04:28:32;;;;;;;8.23;5.37;;;18.10;99.90;;;;;;4975909;28;20074;-73
2022/06/28 04:30:58;;;;;;;7.00;5.63;;;18.10;99.90;;;;;;4985287;28;20366;-73
2022/06/28 04:33:23;;;;;;;6.57;5.23;;;18.10;99.90;;;;;;4981613;28;20022;-73
2022/06/28 04:35:49;;;;;;;6.20;5.13;;;18.10;99.90;;;;;;4976943;28;20042;-73
2022/06/28 04:38:15;;;;;;;7.63;5.07;;;18.20;99.90;;;;;;4984612;28;20042;-72
2022/06/28 04:40:41;;;;;;;9.30;4.97;;;18.10;99.90;;;;;;4968936;28;20058;-73
2022/06/28 04:43:07;;;;;;;9.47;5.03;;;18.20;99.90;;;;;;4984504;28;20060;-72
2022/06/28 04:45:32;;;;;;;9.00;5.37;;;18.20;99.90;;;;;;4984976;28;20322;-72
2022/06/28 04:47:58;;;;;;;5.20;4.53;;;18.20;99.90;;;;;;4984872;28;20023;-73
2022/06/28 04:50:24;;;;;;;7.63;4.87;;;18.20;99.90;;;;;;4975700;28;20334;-73
2022/06/28 04:52:50;;;;;;;6.23;4.47;;;18.10;99.90;;;;;;4972958;28;20031;-73
2022/06/28 04:55:17;;;;;;;10.80;4.67;;;18.10;99.90;;;;;;4973468;28;20019;-72
2022/06/28 04:57:42;;;;;;;;;;;18.10;99.90;;;;;;4958806;28;20230;-73
2022/06/28 05:00:10;;;;;;;14.75;7.60;;;18.00;99.90;;;;;;5000968;28;19925;-73
2022/06/28 05:02:36;;;;;;;7.80;5.32;;;18.00;99.90;;;;;;4948672;28;20089;-73
2022/06/28 05:05:06;;;;;;;6.70;4.80;;;18.10;99.90;;;;;;4966127;28;20090;-73
2022/06/28 05:07:33;;;;;;;7.10;4.28;;;18.10;99.90;;;;;;4991213;28;20102;-74
2022/06/28 05:09:59;;;;;;;6.43;4.63;;;18.20;99.90;;;;;;4983440;28;20090;-69
2022/06/28 05:12:25;;;;;;;7.05;4.55;;;18.20;99.90;;;;;;4981909;28;20330;-68
2022/06/28 05:14:51;;;;;;;5.80;4.13;;;18.30;99.90;;;;;;4971591;28;20033;-68
2022/06/28 05:17:16;;;;;;;4.73;4.27;;;18.40;99.90;;;;;;4983435;28;20203;-68
2022/06/28 05:19:42;;;;;;;4.87;4.00;;;18.40;99.90;;;;;;4976092;28;20035;-68
2022/06/28 05:22:08;;;;;;;5.43;4.03;;;18.40;99.90;;;;;;4983135;28;20037;-68
2022/06/28 05:24:35;;;;;;;6.68;3.95;;;18.50;99.90;;;;;;4982179;28;20041;-68
2022/06/28 05:27:01;;;;;;;7.22;3.90;;;18.40;99.90;;;;;;4977440;28;20079;-68
2022/06/28 05:29:27;;;;;;;7.78;4.47;;;18.50;99.90;;;;;;4983107;28;20050;-69
2022/06/28 05:31:53;;;;;;;4.63;3.63;;;18.50;99.90;;;;;;4983615;28;20023;-69
2022/06/28 05:34:18;;;;;;;5.90;3.53;;;18.60;99.90;;;;;;4983353;28;20027;-69
2022/06/28 05:36:44;;;;;;;9.90;3.83;;;18.70;99.90;;;;;;4976004;28;20049;-68
2022/06/28 05:39:10;;;;;;;3.60;3.00;;;18.70;99.90;;;;;;4984044;28;20097;-69
2022/06/28 05:41:36;;;;;;;4.33;3.33;;;18.70;99.90;;;;;;4978579;28;20029;-68
2022/06/28 05:44:01;;;;;;;4.83;3.63;;;18.70;99.90;;;;;;4989547;28;20038;-72
2022/06/28 05:46:28;;;;;;;4.17;3.60;;;18.80;99.90;;;;;;4975224;28;20318;-72
2022/06/28 05:48:54;;;;;;;5.32;2.90;;;18.70;99.70;;;;;;4983635;28;20069;-72
2022/06/28 05:51:20;;;;;;;4.20;3.37;;;18.70;99.90;;;;;;4982307;28;20030;-72
2022/06/28 05:53:45;;;;;;;3.30;2.93;;;18.80;99.90;;;;;;4983483;28;20018;-73
2022/06/28 05:56:11;;;;;;;6.07;3.57;;;18.80;99.90;;;;;;4985783;28;20029;-73
2022/06/28 05:58:37;;;;;;;3.57;3.27;;;18.80;99.30;;;;;;5002693;28;20034;-73
2022/06/28 06:01:03;;;;;;;3.40;3.10;;;18.80;99.00;;;;;;5002027;28;20022;-72
2022/06/28 06:03:30;;;;;;;5.05;3.13;;;18.80;99.30;;;;;;5001467;28;20036;-73
2022/06/28 06:05:55;;;;;;;4.88;3.58;;;18.80;99.60;;;;;;5002830;28;20038;-71
2022/06/28 06:08:21;;;;;;;5.00;3.17;;;18.90;99.90;;;;;;5002769;28;20056;-73
2022/06/28 06:10:47;;;;;;;5.73;3.10;;;18.90;99.90;;;;;;5002823;28;20057;-70
2022/06/28 06:13:13;;;;;;;5.70;3.00;;;19.00;99.20;;;;;;5002101;28;20030;-70
2022/06/28 06:15:39;;;;;;;3.73;2.80;;;19.00;99.20;;;;;;5002788;28;20121;-70
2022/06/28 06:18:04;;;;;;;4.70;2.67;;;19.00;99.20;;;;;;5002720;28;20022;-70
2022/06/28 06:20:30;;;;;;;6.47;3.23;;;19.10;99.30;;;;;;5002905;28;20026;-70
2022/06/28 06:22:56;;;;;;;5.33;3.03;;;19.10;99.30;;;;;;5002522;28;20073;-71
2022/06/28 06:25:22;;;;;;;3.50;2.63;;;19.20;98.90;;;;;;5002661;28;20353;-70
2022/06/28 06:27:47;;;;;;;3.80;2.80;;;19.20;98.70;;;;;;5002220;28;20313;-70
2022/06/28 06:30:13;;;;;;;5.07;2.90;;;19.20;99.00;;;;;;5001352;28;20033;-70
2022/06/28 06:32:39;;;;;;;4.10;2.65;;;19.30;99.00;;;;;;5002402;28;20038;-70
2022/06/28 06:35:07;;;;;;;3.20;2.47;;;19.40;98.50;;;;;;5002470;28;20270;-70
2022/06/28 06:37:32;;;;;;;4.57;3.22;;;19.40;98.10;;;;;;5002405;28;20101;-71
2022/06/28 06:39:58;;;;;;;3.90;2.37;;;19.40;98.00;;;;;;5002532;28;20203;-70
2022/06/28 06:42:24;;;;;;;3.17;2.70;;;19.50;97.90;;;;;;5002473;28;20080;-70
2022/06/28 06:44:50;;;;;;;3.47;2.50;;;19.50;97.00;;;;;;4999823;28;20073;-70
2022/06/28 06:47:15;;;;;;;3.73;2.67;;;19.50;97.90;;;;;;5002366;28;20030;-70
2022/06/28 06:49:41;;;;;;;4.00;2.43;;;19.60;97.80;;;;;;5002572;28;20029;-70
2022/06/28 06:52:07;;;;;;;4.63;2.83;;;19.60;97.90;;;;;;5002535;28;20057;-71
2022/06/28 06:54:33;;;;;;;2.87;2.57;;;19.60;96.60;;;;;;5002233;28;20045;-71
2022/06/28 06:56:58;;;;;;;3.50;2.37;;;19.70;96.50;;;;;;5002433;28;20121;-70
2022/06/28 06:59:24;;;;;;;2.60;2.30;;;19.70;96.50;;;;;;5002191;28;20041;-71
2022/06/28 07:01:50;;;;;;;2.60;2.20;;;19.80;96.50;;;;;;5002394;28;20019;-71
2022/06/28 07:04:16;;;;;;;3.03;2.40;;;19.80;96.90;;;;;;5002072;28;20273;-70
2022/06/28 07:06:42;;;;;;;3.73;2.33;;;19.90;96.40;;;;;;5001204;28;20359;-71
2022/06/28 07:09:07;;;;;;;4.70;2.53;;;19.90;95.20;;;;;;5002325;28;20034;-71
2022/06/28 07:11:34;;;;;;;2.57;2.23;;;19.90;95.30;;;;;;5002220;28;20017;-70
2022/06/28 07:14:00;;;;;;;2.90;2.20;;;19.90;95.90;;;;;;5001763;28;20252;-71
2022/06/28 07:16:26;;;;;;;;;;;20.00;96.40;;;;;;5000231;28;20026;-70
2022/06/28 07:18:52;;;;;;;3.03;2.55;;;20.00;96.30;;;;;;5002251;28;20156;-71
2022/06/28 07:21:18;;;;;;;4.40;3.60;;;20.10;96.10;;;;;;5001036;28;20329;-71
2022/06/28 07:23:43;;;;;;;2.47;2.20;;;20.10;96.50;;;;;;5002050;28;20045;-73
2022/06/28 07:26:09;;;;;;;4.40;2.37;;;20.20;96.40;;;;;;5002076;28;20073;-70
2022/06/28 07:28:35;;;;;;;3.00;2.30;;;20.20;96.10;;;;;;5002215;28;20026;-71
2022/06/28 07:31:01;;;;;;;3.63;2.10;;;20.20;96.10;;;;;;5000784;28;20018;-71
2022/06/28 07:33:27;;;;;;;2.87;2.53;;;20.20;95.40;;;;;;5001812;28;20352;-71
2022/06/28 07:35:52;;;;;;;2.23;1.90;;;20.30;94.90;;;;;;5003416;28;20234;-70
2022/06/28 07:38:18;;;;;;;5.00;2.03;;;20.30;95.00;;;;;;5005684;28;20225;-70
2022/06/28 07:40:44;;;;;;;2.27;2.00;;;20.30;94.80;;;;;;5005710;28;20027;-72
2022/06/28 07:43:10;;;;;;;2.37;2.13;;;20.40;94.70;;;;;;5005395;28;20037;-71
2022/06/28 07:45:36;;;;;;;2.97;1.90;;;20.40;94.20;;;;;;5004151;28;20022;-71
2022/06/28 07:48:06;;;;;;;2.10;1.90;;;20.40;93.50;;;;;;5005442;28;20362;-74
2022/06/28 07:53:16;;;;;;;3.83;2.03;;;20.50;92.90;;;;;;4978900;28;20038;-74
2022/06/28 07:55:42;;;;;;;4.87;1.80;;;20.60;92.80;;;;;;4965378;29;20023;-75
2022/06/28 07:58:08;;;;;;;3.93;2.03;;;20.60;93.40;;;;;;4990117;28;20019;-75
2022/06/28 08:00:33;;;;;;;3.00;1.73;;;20.70;93.30;;;;;;4985246;28;20069;-75
2022/06/28 08:02:59;;;;;;;2.00;1.77;;;20.70;93.50;;;;;;4984606;28;20057;-75
2022/06/28 08:05:26;;;;;;;2.17;1.50;;;20.80;93.10;;;;;;4985989;28;20228;-74
2022/06/28 08:07:52;;;;;;;;;;;20.80;92.00;;;;;;4985861;28;20345;-76
2022/06/28 08:10:17;;;;;;;2.15;1.75;;;20.80;92.20;;;;;;4984492;28;19941;-70
2022/06/28 08:12:44;;;;;;;2.90;1.50;;;20.90;91.90;;;;;;4985255;28;20026;-70
2022/06/28 08:15:10;;;;;;;2.58;2.03;;;20.90;87.90;;;;;;4993080;28;20277;-70
2022/06/28 08:17:36;;;;;;;1.85;1.70;;;21.00;90.30;;;;;;5004947;28;20022;-70
2022/06/28 08:20:01;;;;;;;2.03;1.70;;;21.10;91.50;;;;;;4986755;28;20404;-70
2022/06/28 08:22:27;;;;;;;4.07;2.00;;;21.10;88.50;;;;;;5004851;28;20045;-70
2022/06/28 08:24:53;;;;;;;2.33;1.63;;;21.10;89.50;;;;;;5003453;28;20273;-71
2022/06/28 08:27:19;;;;;;;2.13;1.50;;;21.10;85.10;;;;;;5004625;28;20281;-70
2022/06/28 08:29:46;;;;;;;1.40;1.30;;;21.10;86.30;;;;;;5003492;28;20030;-70
2022/06/28 08:32:12;;;;;;;3.17;1.50;;;21.10;86.50;;;;;;5004185;28;20293;-71
2022/06/28 08:34:38;;;;;;;2.65;1.75;;;21.20;87.30;;;;;;4991041;28;20029;-70
2022/06/28 08:37:05;;;;;;;7.18;2.60;;;21.30;86.30;;;;;;4984988;28;20038;-70
2022/06/28 08:39:30;;;;;;;5.80;1.95;;;21.30;83.80;;;;;;4985085;28;20019;-70
2022/06/28 08:41:56;;;;;;;2.57;1.93;;;21.30;85.70;;;;;;4993033;28;20080;-70
2022/06/28 08:44:22;;;;;;;4.50;1.77;;;21.40;85.60;;;;;;4986972;28;20045;-70
2022/06/28 08:46:52;;;;;;;1.60;1.50;;;21.40;86.30;;;;;;5001242;28;20030;-70
2022/06/28 08:49:44;;;;;;;19.75;3.08;;;21.50;88.00;;;;;;5004273;28;20034;-70
2022/06/28 08:52:10;;;;;;;5.05;1.77;;;21.50;85.20;;;;;;5001863;28;20022;-70
2022/06/28 08:54:36;;;;;;;2.00;1.80;;;21.50;86.30;;;;;;5002893;28;20026;-71
2022/06/28 08:57:05;;;;;;;1.80;1.70;;;21.60;83.50;;;;;;5002840;28;20030;-70
2022/06/28 08:59:31;;;;;;;5.45;1.75;;;21.70;83.60;;;;;;4970800;28;20022;-70
2022/06/28 09:01:56;;;;;;;3.40;1.73;;;21.90;83.90;;;;;;5001890;28;20073;-71
2022/06/28 09:04:22;;;;;;;1.60;1.33;;;21.90;85.60;;;;;;5003946;28;20041;-71
2022/06/28 09:06:48;;;;;;;2.30;1.67;;;22.00;86.40;;;;;;5001629;28;20026;-71
2022/06/28 09:09:13;;;;;;;3.73;1.40;;;22.10;81.10;;;;;;5002276;28;20282;-71
2022/06/28 09:11:42;;;;;;;1.53;1.43;;;22.10;81.60;;;;;;4984644;28;20066;-71
2022/06/28 09:14:40;;;;;;;4.38;1.52;;;22.20;82.20;;;;;;5002018;28;20068;-71
2022/06/28 09:17:24;;;;;;;4.38;1.80;;;22.30;81.40;;;;;;4969956;28;20384;-71
2022/06/28 09:19:57;;;;;;;2.10;1.58;;;22.40;81.40;;;;;;5003980;28;20030;-70
2022/06/28 09:22:43;;;;;;;1.73;1.48;;;22.40;82.40;;;;;;5002436;28;20043;-71
2022/06/28 09:25:24;;;;;;;1.80;1.60;;;22.50;83.10;;;;;;5002572;28;20022;-70
2022/06/28 09:27:50;;;;;;;3.05;1.70;;;22.50;82.50;;;;;;5002327;28;20026;-71
2022/06/28 09:30:16;;;;;;;1.67;1.58;;;22.40;75.40;;;;;;4986456;28;20329;-71
2022/06/28 09:32:41;;;;;;;2.97;1.43;;;22.40;76.60;;;;;;5001286;28;20045;-71
2022/06/28 09:35:11;;;;;;;1.50;1.40;;;22.40;76.50;;;;;;5003674;28;20281;-71
2022/06/28 09:37:56;;;;;;;2.40;1.52;;;22.40;80.70;;;;;;5003392;28;20026;-71
2022/06/28 09:40:24;;;;;;;2.17;1.27;;;22.50;80.00;;;;;;5003530;28;20220;-71
2022/06/28 09:43:12;;;;;;;1.42;1.25;;;22.50;77.40;;;;;;5001927;28;20026;-70
2022/06/28 09:45:50;;;;;;;1.70;1.52;;;22.60;75.20;;;;;;5003405;28;20064;-70
2022/06/28 09:48:17;;;;;;;3.63;1.40;;;22.60;77.70;;;;;;4968984;28;20035;-71
2022/06/28 09:50:43;;;;;;;3.42;1.60;;;22.70;80.40;;;;;;4964557;28;20019;-71
2022/06/28 09:53:09;;;;;;;3.67;1.40;;;22.70;75.90;;;;;;4964104;28;20373;-71
2022/06/28 09:55:34;;;;;;;1.92;1.45;;;22.80;76.70;;;;;;4963444;29;20222;-71
2022/06/28 09:58:01;;;;;;;3.20;1.77;;;22.90;79.50;;;;;;4963939;28;20031;-71
2022/06/28 10:00:27;;;;;;;;;;;23.00;81.00;;;;;;4964812;28;20245;-71
2022/06/28 10:02:57;;;;;;;2.47;1.95;;;22.90;75.00;;;;;;4963893;29;19906;-71
2022/06/28 10:05:23;;;;;;;1.98;1.73;;;23.00;79.00;;;;;;4964304;28;20232;-71
2022/06/28 10:07:49;;;;;;;1.70;1.58;;;23.00;79.40;;;;;;4964119;28;20029;-71
2022/06/28 10:10:14;;;;;;;2.50;1.77;;;23.00;80.90;;;;;;4964227;28;20082;-71
2022/06/28 10:15:27;;;;;;;2.67;1.85;;;23.10;79.40;;;;;;5001911;28;20255;-71
2022/06/28 10:18:03;;;;;;;3.08;2.10;;;23.10;81.60;;;;;;5002765;28;20085;-71
2022/06/28 10:20:31;;;;;;;3.70;1.92;;;23.10;75.70;;;;;;5000835;28;20030;-71
2022/06/28 10:23:42;;;;;;;6.05;2.25;;;23.10;79.50;;;;;;5002498;28;20194;-71
2022/06/28 10:26:13;;;;;;;3.22;1.80;;;23.10;77.40;;;;;;5002700;28;20026;-71
2022/06/28 10:28:43;;;;;;;3.33;1.55;;;23.10;72.10;;;;;;5002659;28;20362;-71
2022/06/28 10:31:24;;;;;;;4.05;1.70;;;23.10;70.20;;;;;;5000170;28;20343;-71
2022/06/28 10:33:54;;;;;;;1.65;1.55;;;23.10;71.50;;;;;;5002280;28;20345;-70
2022/06/28 10:36:22;;;;;;;1.90;1.60;;;23.10;72.30;;;;;;5002433;28;20022;-71
2022/06/28 10:39:10;;;;;;;3.28;1.60;;;23.20;72.70;;;;;;5000050;28;20033;-71
2022/06/28 10:42:07;;;;;;;4.47;1.40;;;23.20;70.30;;;;;;5002668;28;20022;-71
2022/06/28 10:44:33;;;;;;;8.02;1.45;;;23.20;68.50;;;;;;4997756;28;20069;-72
2022/06/28 10:47:01;;;;;;;1.67;1.50;;;23.20;67.00;;;;;;5002327;28;20022;-71
2022/06/28 10:49:43;;;;;;;1.48;1.30;;;23.10;65.30;;;;;;5001156;28;20030;-71
2022/06/28 10:52:34;;;;;;;2.30;1.45;;;23.20;71.10;;;;;;5002388;28;20198;-71
2022/06/28 10:55:03;;;;;;;3.45;1.50;;;23.20;66.80;;;;;;5001891;28;20021;-71
2022/06/28 10:57:40;;;;;;;3.05;1.30;;;23.20;66.50;;;;;;4982156;28;20218;-71
2022/06/28 11:00:10;;;;;;;1.73;1.08;;;23.20;64.90;;;;;;4963503;28;20087;-71
2022/06/28 11:02:51;;;;;;;2.45;1.50;;;23.30;62.80;;;;;;4963500;28;20027;-71
2022/06/28 11:05:18;;;;;;;1.70;0.93;;;23.30;64.70;;;;;;4963620;29;20031;-71
2022/06/28 11:08:00;;;;;;;3.35;1.30;;;23.50;65.20;;;;;;4963368;28;20254;-71
2022/06/28 11:10:27;;;;;;;2.25;1.20;;;23.50;64.40;;;;;;4964155;28;20030;-71
2022/06/28 11:12:53;;;;;;;1.48;1.13;;;23.70;65.50;;;;;;4967091;28;20226;-71
2022/06/28 11:15:35;;;;;;;3.57;1.10;;;23.70;59.80;;;;;;5004543;28;20049;-71
2022/06/28 11:18:01;;;;;;;3.58;1.10;;;23.70;61.90;;;;;;5004645;28;20033;-71
2022/06/28 11:20:28;;;;;;;2.17;0.97;;;23.80;61.10;;;;;;5005401;28;20030;-71
2022/06/28 11:22:53;;;;;;;3.80;1.25;;;23.80;61.80;;;;;;5005498;28;20591;-71
2022/06/28 11:25:21;;;;;;;1.27;1.10;;;23.90;63.20;;;;;;5004946;28;20034;-72
2022/06/28 11:27:47;;;;;;;2.05;0.95;;;24.00;60.40;;;;;;5005858;28;20273;-72
2022/06/28 11:30:14;;;;;;;1.52;1.13;;;24.20;65.10;;;;;;5004622;28;20021;-71
2022/06/28 11:32:43;;;;;;;;;;;24.20;63.70;;;;;;5004998;28;20241;-71
2022/06/28 11:35:13;;;;;;;2.92;1.08;;;24.20;61.20;;;;;;5001242;28;19905;-71
2022/06/28 11:37:55;;;;;;;4.13;1.60;;;24.30;60.40;;;;;;4993023;28;20045;-72
2022/06/28 11:40:27;;;;;;;0.90;0.80;;;24.40;63.00;;;;;;5005479;28;20061;-72
2022/06/28 11:43:20;;;;;;;5.00;1.90;;;24.30;59.90;;;;;;5005379;28;20036;-71
2022/06/28 11:45:48;;;;;;;2.28;1.25;;;24.30;61.70;;;;;;5003424;28;20035;-71
2022/06/28 11:48:23;;;;;;;1.65;1.10;;;24.50;63.30;;;;;;5005499;28;20271;-72
2022/06/28 11:50:54;;;;;;;1.63;1.20;;;24.50;60.90;;;;;;5004488;28;20085;-71
2022/06/28 11:53:20;;;;;;;3.25;1.25;;;24.60;62.70;;;;;;5005008;28;20079;-71
2022/06/28 11:55:47;;;;;;;2.15;1.02;;;24.60;60.70;;;;;;5005484;28;20038;-72
2022/06/28 11:58:20;;;;;;;2.65;1.20;;;24.80;64.30;;;;;;5004350;28;20313;-72
2022/06/28 12:01:12;;;;;;;1.33;1.23;;;24.80;64.40;;;;;;5004399;28;20221;-71
2022/06/28 12:03:43;;;;;;;1.60;1.45;;;24.90;64.00;;;;;;5005012;28;20018;-72
2022/06/28 12:06:24;;;;;;;2.10;1.00;;;25.00;65.30;;;;;;5005317;28;20407;-72
2022/06/28 12:09:04;;;;;;;1.30;1.20;;;25.10;68.80;;;;;;5005008;28;20372;-72
2022/06/28 12:11:47;;;;;;;3.33;1.50;;;25.20;64.90;;;;;;5004117;28;20289;-74
2022/06/28 12:14:32;;;;;;;2.90;1.25;;;25.30;62.30;;;;;;5003798;28;20027;-75
2022/06/28 12:17:00;;;;;;;3.30;1.95;;;25.40;62.90;;;;;;5004036;28;20093;-74
2022/06/28 12:19:28;;;;;;;2.67;1.55;;;25.50;65.30;;;;;;5005106;28;20041;-74
2022/06/28 12:22:08;;;;;;;1.30;1.20;;;25.60;61.80;;;;;;5003837;28;20018;-75
2022/06/28 12:24:51;;;;;;;2.63;1.20;;;25.70;60.70;;;;;;5004227;28;20022;-74
2022/06/28 12:27:28;;;;;;;2.42;1.45;;;25.80;63.80;;;;;;5003859;28;20038;-74
2022/06/28 12:29:56;;;;;;;1.48;1.38;;;25.90;60.40;;;;;;5004968;28;20026;-75
2022/06/28 12:32:21;;;;;;;1.83;1.10;;;26.00;61.40;;;;;;5003649;28;20076;-74
2022/06/28 12:34:47;;;;;;;1.77;1.30;;;26.10;58.80;;;;;;5003371;28;20085;-75
2022/06/28 12:37:13;;;;;;;1.20;1.10;;;26.10;59.70;;;;;;5004537;28;20561;-75
2022/06/28 12:39:39;;;;;;;1.55;1.35;;;26.10;56.10;;;;;;5003458;28;20049;-75
2022/06/28 12:42:05;;;;;;;2.22;1.63;;;26.20;58.70;;;;;;5002011;28;20034;-74
2022/06/28 12:44:31;;;;;;;1.35;1.25;;;26.30;61.50;;;;;;5003266;28;20206;-75
2022/06/28 12:46:57;;;;;;;3.80;1.67;;;26.40;58.40;;;;;;5003469;28;20145;-75
2022/06/28 12:49:23;;;;;;;1.70;1.60;;;26.60;59.70;;;;;;5002310;28;20037;-74
2022/06/28 12:51:49;;;;;;;1.77;1.65;;;26.70;58.90;;;;;;5004659;28;20034;-75
2022/06/28 12:54:15;;;;;;;1.85;1.60;;;26.70;60.50;;;;;;5001720;28;20081;-74
2022/06/28 12:56:41;;;;;;;2.25;1.67;;;26.90;62.50;;;;;;5003266;28;20053;-74
2022/06/28 12:59:06;;;;;;;7.70;1.63;;;27.10;57.90;;;;;;5004311;28;20034;-74
2022/06/28 13:01:32;;;;;;;2.08;1.70;;;27.00;57.60;;;;;;5003175;28;20038;-75
2022/06/28 13:03:58;;;;;;;5.72;1.73;;;27.10;58.60;;;;;;5003858;28;20069;-75